Terminal Aerodrome Forecast
Issued by NWS

Home | Current Version | Previous Version | Text Only | Print | Product List | Glossary On
Versions: 1 2 3 4 5 6 7 8 9 10 11 12 13 14 15 16 17 18 19 20 21 22 23 24 25 26
000
FTUS43 KMKX 230547
TAFUES
TAF
KUES 230547Z 2306/2406 30007KT 1 1/2SM -SN BR OVC003
     FM230800 33010G18KT 1 1/2SM -SN BR OVC003
     FM231100 32013G23KT P6SM OVC010
     FM231500 33014G25KT P6SM OVC015
     FM232000 32013G22KT P6SM OVC020
     FM240100 31009KT P6SM SCT040=

USA.gov is the U.S. government's official web portal to all federal, state and local government web resources and services.